createdAt,value
2018-09-06T00:01:04.874Z,7.03
2018-09-06T00:03:33.150Z,6.50
2018-09-06T00:06:01.429Z,6.80
2018-09-06T00:08:32.276Z,6.60
2018-09-06T00:11:00.622Z,6.63
2018-09-06T00:13:28.907Z,7.37
2018-09-06T00:15:57.216Z,6.87
2018-09-06T00:18:25.647Z,7.90
2018-09-06T00:20:53.890Z,7.17
2018-09-06T00:23:22.190Z,6.70
2018-09-06T00:25:50.445Z,7.23
2018-09-06T00:28:18.772Z,9.27
2018-09-06T00:30:47.082Z,8.03
2018-09-06T00:33:15.497Z,7.73
2018-09-06T00:35:43.836Z,9.37
2018-09-06T00:38:12.198Z,6.73
2018-09-06T00:40:40.498Z,7.77
2018-09-06T00:43:08.801Z,7.37
2018-09-06T00:45:37.086Z,7.40
2018-09-06T00:48:05.429Z,7.40
2018-09-06T00:50:39.801Z,6.80
2018-09-06T00:53:08.162Z,6.93
2018-09-06T00:55:36.540Z,7.83
2018-09-06T00:58:04.833Z,7.40
2018-09-06T01:00:33.066Z,9.03
2018-09-06T01:03:01.345Z,6.90
2018-09-06T01:05:30.051Z,8.37
2018-09-06T01:07:58.326Z,6.60
2018-09-06T01:10:26.706Z,6.97
2018-09-06T01:12:54.985Z,7.43
2018-09-06T01:15:23.330Z,6.93
2018-09-06T01:17:51.603Z,6.57
2018-09-06T01:20:19.964Z,7.00
2018-09-06T01:22:48.242Z,6.90
2018-09-06T01:25:16.677Z,7.10
2018-09-06T01:27:45.122Z,8.27
2018-09-06T01:30:13.417Z,7.00
2018-09-06T01:32:41.693Z,6.83
2018-09-06T01:35:09.948Z,7.80
2018-09-06T01:37:38.224Z,6.93
2018-09-06T01:40:06.579Z,7.50
2018-09-06T01:42:34.954Z,7.33
2018-09-06T01:45:03.260Z,8.73
2018-09-06T01:47:32.615Z,7.23
2018-09-06T01:50:00.873Z,6.80
2018-09-06T01:52:29.181Z,7.77
2018-09-06T01:54:57.465Z,7.43
2018-09-06T01:57:25.912Z,7.50
2018-09-06T01:59:54.285Z,8.67
2018-09-06T02:02:22.640Z,7.63
2018-09-06T02:04:50.953Z,7.93
2018-09-06T02:07:19.218Z,8.10
2018-09-06T02:09:47.531Z,8.30
2018-09-06T02:12:15.861Z,8.63
2018-09-06T02:14:44.183Z,8.37
2018-09-06T02:17:12.426Z,8.17
2018-09-06T02:19:40.704Z,8.67
2018-09-06T02:22:08.989Z,8.50
2018-09-06T02:24:37.355Z,8.73
2018-09-06T02:27:05.631Z,8.20
2018-09-06T02:29:33.908Z,10.50
2018-09-06T02:32:02.328Z,10.93
2018-09-06T02:34:30.666Z,7.73
2018-09-06T02:36:58.941Z,9.20
2018-09-06T02:39:27.260Z,8.77
2018-09-06T02:41:55.533Z,8.93
2018-09-06T02:44:23.925Z,8.57
2018-09-06T02:46:52.193Z,8.90
2018-09-06T02:49:24.668Z,9.47
2018-09-06T02:51:52.952Z,9.50
2018-09-06T02:54:21.192Z,9.67
2018-09-06T02:56:49.452Z,10.60
2018-09-06T02:59:17.737Z,10.10
2018-09-06T03:01:46.006Z,10.30
2018-09-06T03:04:14.273Z,10.13
2018-09-06T03:06:42.611Z,10.60
2018-09-06T03:09:10.850Z,11.13
2018-09-06T03:11:44.378Z,10.77
2018-09-06T03:14:12.713Z,12.97
2018-09-06T03:16:40.988Z,11.53
2018-09-06T03:19:09.264Z,12.13
2018-09-06T03:21:37.521Z,10.90
2018-09-06T03:24:05.797Z,13.10
2018-09-06T03:26:34.073Z,11.27
2018-09-06T03:29:02.352Z,11.87
2018-09-06T03:31:30.624Z,12.23
2018-09-06T03:33:58.892Z,11.70
2018-09-06T03:36:27.280Z,12.27
2018-09-06T03:38:55.631Z,11.33
2018-09-06T03:41:23.877Z,11.60
2018-09-06T03:43:52.196Z,12.23
2018-09-06T03:46:20.464Z,13.13
2018-09-06T03:48:48.733Z,12.47
2018-09-06T03:51:16.989Z,15.33
2018-09-06T03:53:45.312Z,14.70
2018-09-06T03:56:13.725Z,14.97
2018-09-06T03:58:42.066Z,15.40
2018-09-06T04:01:10.334Z,14.90
2018-09-06T04:03:38.686Z,17.10
2018-09-06T04:06:07.198Z,16.00
2018-09-06T04:08:35.481Z,14.67
2018-09-06T04:11:03.774Z,14.90
2018-09-06T04:13:32.045Z,17.67
2018-09-06T04:16:00.334Z,16.13
2018-09-06T04:18:28.709Z,16.40
2018-09-06T04:20:56.905Z,16.20
2018-09-06T04:23:25.205Z,16.23
2018-09-06T04:25:53.526Z,18.73
2018-09-06T04:28:21.821Z,21.10
2018-09-06T04:30:50.073Z,16.03
2018-09-06T04:33:18.377Z,17.63
2018-09-06T04:35:46.717Z,17.20
2018-09-06T04:38:14.941Z,17.57
2018-09-06T04:40:43.213Z,17.27
2018-09-06T04:43:11.654Z,18.17
2018-09-06T04:45:39.915Z,17.30
2018-09-06T04:48:08.201Z,18.33
2018-09-06T04:50:37.224Z,18.30
2018-09-06T04:53:05.593Z,18.13
2018-09-06T04:55:33.815Z,16.33
2018-09-06T04:58:02.093Z,17.93
2018-09-06T05:00:30.389Z,20.03
2018-09-06T05:02:58.627Z,18.77
2018-09-06T05:05:26.889Z,18.63
2018-09-06T05:07:55.169Z,17.93
2018-09-06T05:10:23.446Z,20.50
2018-09-06T05:12:51.753Z,18.27
2018-09-06T05:15:20.270Z,19.73
2018-09-06T05:17:48.548Z,22.10
2018-09-06T05:20:16.878Z,18.73
2018-09-06T05:22:45.649Z,19.40
2018-09-06T05:25:14.018Z,18.80
2018-09-06T05:27:42.352Z,22.10
2018-09-06T05:30:10.644Z,24.00
2018-09-06T05:32:38.959Z,25.30
2018-09-06T05:35:07.292Z,22.90
2018-09-06T05:37:35.505Z,21.83
2018-09-06T05:40:03.816Z,20.83
2018-09-06T05:42:32.129Z,21.40
2018-09-06T05:45:00.368Z,23.90
2018-09-06T05:47:28.672Z,22.30
2018-09-06T05:49:56.881Z,28.50
2018-09-06T05:52:25.145Z,26.50
2018-09-06T05:54:53.439Z,24.90
2018-09-06T05:57:21.685Z,25.67
2018-09-06T05:59:50.016Z,28.10
2018-09-06T06:02:18.272Z,31.60
2018-09-06T06:04:46.541Z,29.07
2018-09-06T06:07:14.819Z,29.57
2018-09-06T06:09:43.097Z,34.33
2018-09-06T06:12:11.386Z,31.80
2018-09-06T06:14:39.661Z,33.87
2018-09-06T06:17:07.990Z,39.33
2018-09-06T06:19:36.288Z,33.77
2018-09-06T06:22:04.545Z,37.97
2018-09-06T06:24:32.842Z,42.43
2018-09-06T06:27:01.128Z,35.03
2018-09-06T06:29:29.501Z,42.63
2018-09-06T06:31:57.976Z,52.47
2018-09-06T06:34:26.235Z,45.77
2018-09-06T06:36:54.717Z,47.50
2018-09-06T06:39:23.089Z,46.47
2018-09-06T06:41:51.373Z,49.23
2018-09-06T06:44:19.671Z,49.93
2018-09-06T06:46:47.908Z,45.47
2018-09-06T06:49:16.622Z,43.20
2018-09-06T06:51:44.885Z,47.17
2018-09-06T06:54:13.162Z,43.17
2018-09-06T06:56:41.454Z,44.67
2018-09-06T06:59:09.717Z,46.33
2018-09-06T07:01:38.029Z,43.57
2018-09-06T07:04:06.533Z,45.70
2018-09-06T07:06:35.393Z,43.80
2018-09-06T07:09:05.501Z,41.53
2018-09-06T07:11:33.761Z,41.27
2018-09-06T07:14:02.049Z,41.37
2018-09-06T07:16:30.329Z,40.10
2018-09-06T07:18:58.619Z,40.40
2018-09-06T07:21:26.897Z,38.37
2018-09-06T07:23:55.183Z,37.87
2018-09-06T07:26:23.444Z,41.47
2018-09-06T07:28:51.753Z,37.37
2018-09-06T07:31:20.014Z,40.23
2018-09-06T07:33:48.272Z,39.33
2018-09-06T07:36:16.562Z,39.53
2018-09-06T07:38:44.870Z,35.40
2018-09-06T07:41:13.158Z,38.47
2018-09-06T07:43:41.809Z,34.97
2018-09-06T07:46:10.190Z,38.30
2018-09-06T07:48:38.482Z,35.80
2018-09-06T07:51:07.221Z,34.90
2018-09-06T07:53:35.473Z,35.57
2018-09-06T07:56:03.697Z,35.83
2018-09-06T07:58:32.009Z,32.83
2018-09-06T08:01:00.253Z,30.47
2018-09-06T08:03:29.538Z,31.03
2018-09-06T08:05:57.766Z,32.43
2018-09-06T08:08:26.020Z,32.07
2018-09-06T08:10:54.344Z,27.20
2018-09-06T08:13:22.657Z,30.63
2018-09-06T08:15:50.933Z,28.47
2018-09-06T08:18:19.281Z,26.57
2018-09-06T08:20:47.577Z,23.90
2018-09-06T08:23:16.973Z,27.10
2018-09-06T08:25:45.236Z,26.97
2018-09-06T08:28:13.578Z,23.87
2018-09-06T08:30:41.896Z,27.10
2018-09-06T08:33:10.141Z,23.30
2018-09-06T08:35:38.361Z,24.13
2018-09-06T08:38:07.141Z,23.18
2018-09-06T08:40:35.711Z,21.90
2018-09-06T08:43:04.009Z,22.45
2018-09-06T08:45:32.297Z,21.42
2018-09-06T08:48:00.611Z,20.75
2018-09-06T08:50:28.873Z,20.50
2018-09-06T08:52:57.457Z,20.82
2018-09-06T08:55:26.000Z,19.82
2018-09-06T08:57:54.290Z,19.85
2018-09-06T09:00:22.625Z,19.25
2018-09-06T09:02:50.925Z,20.37
2018-09-06T09:05:19.217Z,20.48
2018-09-06T09:07:47.508Z,18.70
2018-09-06T09:10:15.787Z,18.57
2018-09-06T09:12:44.099Z,18.02
2018-09-06T09:15:12.377Z,18.37
2018-09-06T09:17:40.637Z,18.37
2018-09-06T09:20:08.888Z,18.23
2018-09-06T09:22:37.165Z,18.57
2018-09-06T09:25:05.448Z,16.05
2018-09-06T09:27:33.840Z,16.15
2018-09-06T09:30:02.086Z,16.60
2018-09-06T09:32:30.379Z,16.27
2018-09-06T09:34:58.637Z,15.60
2018-09-06T09:37:26.953Z,14.47
2018-09-06T09:39:55.241Z,14.80
2018-09-06T09:42:23.591Z,13.65
2018-09-06T09:44:51.888Z,15.48
2018-09-06T09:49:50.633Z,14.53
2018-09-06T09:54:46.429Z,13.68
2018-09-06T09:57:14.677Z,12.45
2018-09-06T09:59:42.954Z,11.93
2018-09-06T10:02:16.580Z,13.03
2018-09-06T10:04:50.605Z,12.18
2018-09-06T10:07:24.089Z,10.43
2018-09-06T10:09:52.341Z,11.18
2018-09-06T10:12:20.634Z,11.50
2018-09-06T10:14:48.940Z,11.48
2018-09-06T10:17:17.223Z,11.33
2018-09-06T10:19:45.577Z,11.65
2018-09-06T10:22:13.850Z,11.73
2018-09-06T10:24:42.223Z,11.35
2018-09-06T10:27:10.549Z,11.48
2018-09-06T10:29:38.878Z,11.97
2018-09-06T10:32:07.205Z,11.57
2018-09-06T10:34:35.501Z,11.53
2018-09-06T10:37:04.245Z,15.85
2018-09-06T10:39:32.501Z,10.58
2018-09-06T10:42:00.819Z,11.45
2018-09-06T10:44:29.149Z,10.70
2018-09-06T10:46:58.038Z,11.33
2018-09-06T10:49:26.487Z,11.55
2018-09-06T10:51:54.797Z,10.23
2018-09-06T10:54:23.088Z,11.78
2018-09-06T10:56:51.416Z,10.20
2018-09-06T10:59:19.774Z,11.55
2018-09-06T11:01:48.061Z,10.80
2018-09-06T11:04:16.380Z,10.32
2018-09-06T11:06:44.666Z,10.28
2018-09-06T11:09:12.991Z,12.78
2018-09-06T11:11:41.282Z,10.45
2018-09-06T11:14:09.557Z,10.65
2018-09-06T11:16:37.844Z,13.45
2018-09-06T11:19:06.104Z,10.23
2018-09-06T11:21:34.535Z,13.53
2018-09-06T11:24:02.661Z,10.85
2018-09-06T11:26:30.981Z,10.88
2018-09-06T11:28:59.618Z,11.60
2018-09-06T11:31:27.933Z,10.68
2018-09-06T11:33:56.377Z,11.38
2018-09-06T11:36:24.614Z,13.00
2018-09-06T11:38:52.929Z,11.20
2018-09-06T11:41:21.263Z,11.55
2018-09-06T11:43:49.564Z,10.98
2018-09-06T11:46:18.125Z,11.73
2018-09-06T11:48:46.495Z,14.93
2018-09-06T11:51:14.945Z,11.83
2018-09-06T11:53:43.274Z,14.95
2018-09-06T11:56:11.597Z,12.43
2018-09-06T11:58:40.641Z,11.57
2018-09-06T12:01:09.002Z,10.43
2018-09-06T12:03:37.371Z,12.75
2018-09-06T12:06:05.744Z,11.55
2018-09-06T12:08:34.605Z,11.88
2018-09-06T12:11:02.933Z,11.97
2018-09-06T12:13:31.222Z,12.63
2018-09-06T12:15:59.497Z,10.60
2018-09-06T12:18:28.065Z,10.78
2018-09-06T12:20:56.390Z,10.50
2018-09-06T12:23:24.669Z,13.40
2018-09-06T12:25:53.217Z,10.85
2018-09-06T12:28:21.541Z,11.53
2018-09-06T12:30:49.888Z,10.58
2018-09-06T12:33:18.755Z,12.30
2018-09-06T12:35:47.081Z,10.35
2018-09-06T12:38:15.481Z,13.30
2018-09-06T12:40:43.750Z,36.03
2018-09-06T12:43:12.064Z,11.53
2018-09-06T12:45:40.406Z,11.05
2018-09-06T12:48:08.829Z,14.00
2018-09-06T12:50:37.147Z,15.58
2018-09-06T12:53:05.741Z,11.70
2018-09-06T12:55:34.092Z,11.55
2018-09-06T12:58:02.361Z,19.98
2018-09-06T13:00:30.610Z,10.93
2018-09-06T13:02:58.912Z,10.93
2018-09-06T13:05:27.184Z,10.28
2018-09-06T13:07:55.501Z,10.10
2018-09-06T13:10:23.830Z,9.45
2018-09-06T13:12:52.389Z,12.28
2018-09-06T13:15:20.745Z,9.38
2018-09-06T13:17:49.057Z,12.68
2018-09-06T13:20:17.344Z,12.00
2018-09-06T13:22:45.620Z,9.95
2018-09-06T13:25:14.176Z,10.68
2018-09-06T13:27:42.429Z,13.00
2018-09-06T13:30:10.677Z,9.78
2018-09-06T13:32:38.950Z,11.15
2018-09-06T13:35:07.392Z,11.33
2018-09-06T13:37:35.665Z,9.93
2018-09-06T13:40:04.203Z,8.70
2018-09-06T13:42:32.541Z,11.35
2018-09-06T13:45:00.776Z,9.75
2018-09-06T13:47:29.094Z,10.75
2018-09-06T13:49:57.421Z,10.05
2018-09-06T13:52:25.753Z,12.07
2018-09-06T13:54:54.020Z,12.47
2018-09-06T13:57:22.277Z,11.22
2018-09-06T13:59:50.651Z,9.48
2018-09-06T14:02:18.877Z,11.08
2018-09-06T14:04:47.166Z,10.28
2018-09-06T14:07:15.830Z,10.20
2018-09-06T14:09:44.677Z,11.50
2018-09-06T14:12:13.002Z,9.88
2018-09-06T14:14:41.278Z,10.88
2018-09-06T14:17:09.525Z,9.73
2018-09-06T14:19:37.881Z,10.20
2018-09-06T14:22:06.614Z,12.43
2018-09-06T14:24:34.867Z,14.30
2018-09-06T14:27:03.157Z,11.83
2018-09-06T14:29:31.538Z,11.30
2018-09-06T14:31:59.888Z,14.70
2018-09-06T14:34:28.166Z,12.20
2018-09-06T14:36:56.569Z,9.68
2018-09-06T14:39:24.989Z,11.78
2018-09-06T14:41:53.366Z,10.00
2018-09-06T14:44:21.682Z,10.78
2018-09-06T14:46:49.973Z,10.32
2018-09-06T14:49:18.325Z,9.90
2018-09-06T14:51:46.703Z,11.20
2018-09-06T14:54:14.970Z,11.20
2018-09-06T14:56:43.260Z,10.45
2018-09-06T14:59:11.791Z,11.15
2018-09-06T15:01:40.039Z,10.40
2018-09-06T15:04:08.360Z,9.60
2018-09-06T15:09:14.753Z,9.73
2018-09-06T15:11:43.053Z,9.20
2018-09-06T15:14:11.424Z,12.33
2018-09-06T15:16:39.821Z,9.65
2018-09-06T15:19:08.157Z,11.20
2018-09-06T15:21:36.571Z,11.28
2018-09-06T15:24:04.809Z,8.88
2018-09-06T15:26:33.061Z,11.33
2018-09-06T15:29:01.300Z,9.60
2018-09-06T15:31:30.300Z,8.50
2018-09-06T15:33:58.557Z,12.85
2018-09-06T15:36:26.840Z,10.50
2018-09-06T15:38:55.233Z,9.30
2018-09-06T15:41:23.535Z,10.43
2018-09-06T15:43:51.829Z,8.50
2018-09-06T15:46:20.108Z,9.75
2018-09-06T15:48:48.464Z,12.82
2018-09-06T15:51:16.765Z,11.60
2018-09-06T15:53:45.040Z,11.30
2018-09-06T15:56:13.370Z,12.35
2018-09-06T15:58:41.634Z,8.93
2018-09-06T16:01:09.893Z,8.88
2018-09-06T16:03:38.197Z,8.85
2018-09-06T16:06:06.781Z,9.25
2018-09-06T16:08:35.105Z,12.07
2018-09-06T16:11:03.385Z,9.45
2018-09-06T16:13:31.702Z,13.43
2018-09-06T16:15:59.933Z,9.10
2018-09-06T16:18:28.397Z,13.60
2018-09-06T16:20:56.757Z,8.98
2018-09-06T16:23:25.037Z,9.90
2018-09-06T16:25:53.293Z,9.50
2018-09-06T16:28:22.613Z,8.53
2018-09-06T16:30:50.912Z,10.10
2018-09-06T16:33:19.210Z,10.60
2018-09-06T16:35:47.442Z,8.98
2018-09-06T16:38:16.846Z,9.80
2018-09-06T16:40:45.125Z,8.38
2018-09-06T16:43:13.394Z,9.88
2018-09-06T16:45:41.748Z,12.80
2018-09-06T16:48:10.028Z,9.90
2018-09-06T16:50:38.393Z,8.80
2018-09-06T16:53:06.946Z,9.83
2018-09-06T16:55:35.225Z,10.87
2018-09-06T16:58:03.509Z,10.60
2018-09-06T17:00:31.878Z,10.13
2018-09-06T17:03:00.170Z,10.20
2018-09-06T17:05:28.442Z,12.53
2018-09-06T17:07:56.725Z,11.33
2018-09-06T17:10:25.014Z,11.95
2018-09-06T17:12:53.292Z,8.87
2018-09-06T17:15:21.630Z,9.67
2018-09-06T17:17:49.902Z,10.40
2018-09-06T17:20:18.233Z,12.27
2018-09-06T17:22:46.608Z,12.07
2018-09-06T17:25:14.894Z,12.30
2018-09-06T17:27:43.125Z,10.17
2018-09-06T17:30:11.373Z,10.63
2018-09-06T17:32:39.760Z,10.50
2018-09-06T17:35:08.001Z,10.13
2018-09-06T17:37:36.229Z,9.87
2018-09-06T17:40:04.565Z,12.33
2018-09-06T17:42:33.717Z,9.93
2018-09-06T17:45:02.374Z,12.50
2018-09-06T17:47:30.720Z,9.03
2018-09-06T17:49:58.965Z,11.43
2018-09-06T17:52:27.207Z,12.10
2018-09-06T17:54:55.531Z,10.63
2018-09-06T17:57:23.792Z,10.60
2018-09-06T18:00:55.075Z,12.70
2018-09-06T18:03:23.454Z,10.77
2018-09-06T18:05:51.785Z,11.00
2018-09-06T18:08:20.119Z,9.70
2018-09-06T18:10:48.494Z,11.10
2018-09-06T18:13:16.848Z,11.30
2018-09-06T18:15:45.094Z,11.90
2018-09-06T18:18:13.402Z,12.83
2018-09-06T18:20:41.675Z,11.47
2018-09-06T18:23:09.934Z,10.00
2018-09-06T18:25:38.263Z,16.57
2018-09-06T18:28:06.663Z,10.97
2018-09-06T18:30:35.057Z,16.37
2018-09-06T18:33:03.414Z,13.27
2018-09-06T18:35:31.666Z,12.40
2018-09-06T18:37:59.986Z,11.20
2018-09-06T18:40:28.256Z,12.30
2018-09-06T18:42:56.572Z,13.57
2018-09-06T18:45:24.841Z,13.27
2018-09-06T18:47:53.191Z,15.00
2018-09-06T18:50:21.538Z,11.43
2018-09-06T18:52:49.807Z,12.43
2018-09-06T18:55:18.161Z,12.80
2018-09-06T18:57:46.432Z,17.37
2018-09-06T19:00:14.706Z,13.73
2018-09-06T19:02:43.035Z,15.77
2018-09-06T19:05:11.405Z,15.80
2018-09-06T19:07:39.708Z,14.20
2018-09-06T19:10:07.958Z,14.47
2018-09-06T19:12:36.277Z,14.73
2018-09-06T19:15:04.550Z,16.30
2018-09-06T19:17:32.994Z,13.63
2018-09-06T19:20:01.259Z,12.73
2018-09-06T19:22:29.563Z,12.50
2018-09-06T19:24:57.914Z,13.80
2018-09-06T19:27:26.169Z,14.83
2018-09-06T19:29:54.651Z,14.10
2018-09-06T19:32:22.946Z,12.40
2018-09-06T19:34:51.202Z,16.07
2018-09-06T19:37:19.449Z,15.50
2018-09-06T19:39:47.829Z,13.20
2018-09-06T19:42:16.106Z,15.30
2018-09-06T19:44:44.356Z,15.07
2018-09-06T19:47:12.673Z,15.93
2018-09-06T19:49:41.092Z,13.80
2018-09-06T19:52:09.603Z,13.83
2018-09-06T19:54:44.385Z,15.33
2018-09-06T19:57:12.713Z,15.03
2018-09-06T19:59:41.413Z,13.27
2018-09-06T20:02:09.721Z,15.03
2018-09-06T20:04:38.122Z,13.47
2018-09-06T20:07:06.652Z,13.90
2018-09-06T20:09:34.933Z,16.30
2018-09-06T20:12:03.187Z,13.17
2018-09-06T20:14:31.453Z,15.70
2018-09-06T20:16:59.817Z,16.00
2018-09-06T20:19:28.138Z,14.37
2018-09-06T20:21:56.578Z,19.07
2018-09-06T20:24:24.912Z,17.20
2018-09-06T20:26:53.161Z,15.57
2018-09-06T20:29:21.450Z,16.60
2018-09-06T20:31:49.781Z,17.47
2018-09-06T20:34:18.077Z,16.40
2018-09-06T20:36:46.369Z,18.93
2018-09-06T20:39:14.700Z,15.37
2018-09-06T20:41:42.996Z,20.07
2018-09-06T20:44:11.205Z,16.03
2018-09-06T20:46:39.493Z,19.07
2018-09-06T20:49:07.737Z,20.10
2018-09-06T20:51:36.015Z,17.67
2018-09-06T20:54:04.278Z,19.93
2018-09-06T20:56:32.557Z,19.37
2018-09-06T20:59:00.873Z,17.40
2018-09-06T21:01:29.181Z,19.30
2018-09-06T21:03:57.718Z,17.57
2018-09-06T21:06:26.000Z,19.97
2018-09-06T21:08:54.404Z,18.60
2018-09-06T21:11:22.956Z,21.33
2018-09-06T21:13:51.367Z,23.97
2018-09-06T21:16:19.709Z,20.40
2018-09-06T21:18:47.992Z,21.23
2018-09-06T21:21:16.292Z,20.83
2018-09-06T21:23:44.585Z,27.43
2018-09-06T21:26:12.833Z,23.43
2018-09-06T21:28:41.161Z,24.27
2018-09-06T21:31:09.692Z,24.10
2018-09-06T21:33:37.959Z,24.90
2018-09-06T21:36:06.402Z,24.60
2018-09-06T21:38:34.833Z,25.40
2018-09-06T21:41:06.345Z,27.90
2018-09-06T21:43:34.820Z,25.77
2018-09-06T21:46:03.105Z,26.00
2018-09-06T21:48:31.369Z,29.17
2018-09-06T21:51:03.029Z,29.77
2018-09-06T21:53:31.490Z,33.83
2018-09-06T21:55:59.785Z,33.47
2018-09-06T21:58:28.121Z,39.00
2018-09-06T22:00:56.561Z,36.53
2018-09-06T22:03:30.329Z,38.33
2018-09-06T22:05:58.589Z,48.63
2018-09-06T22:08:26.866Z,57.77
2018-09-06T22:10:55.383Z,62.17
2018-09-06T22:13:23.681Z,48.47
2018-09-06T22:15:51.993Z,56.50
2018-09-06T22:18:20.313Z,78.97
2018-09-06T22:20:48.804Z,58.17
2018-09-06T22:23:17.198Z,54.07
2018-09-06T22:25:45.460Z,50.73
2018-09-06T22:28:13.737Z,69.50
2018-09-06T22:30:42.018Z,61.73
2018-09-06T22:33:10.281Z,57.70
2018-09-06T22:35:38.669Z,57.30
2018-09-06T22:38:06.949Z,78.30
2018-09-06T22:40:35.233Z,78.00
2018-09-06T22:43:03.525Z,60.83
2018-09-06T22:45:31.785Z,62.50
2018-09-06T22:48:00.072Z,81.03
2018-09-06T22:50:28.837Z,73.83
2018-09-06T22:52:57.134Z,90.83
2018-09-06T22:55:25.385Z,93.33
2018-09-06T22:57:53.680Z,105.53
2018-09-06T23:00:22.046Z,87.30
2018-09-06T23:02:55.693Z,97.93
2018-09-06T23:05:24.240Z,134.33
2018-09-06T23:07:52.603Z,83.60
2018-09-06T23:10:20.865Z,109.77
2018-09-06T23:12:49.198Z,82.00
2018-09-06T23:15:17.489Z,82.57
2018-09-06T23:17:45.746Z,99.07
2018-09-06T23:20:14.001Z,106.93
2018-09-06T23:22:42.285Z,109.10
2018-09-06T23:25:10.526Z,98.07
2018-09-06T23:27:38.812Z,101.60
2018-09-06T23:30:07.189Z,98.77
2018-09-06T23:32:35.589Z,109.87
2018-09-06T23:35:03.872Z,176.40
2018-09-06T23:37:32.165Z,133.60
2018-09-06T23:40:00.456Z,104.53
2018-09-06T23:42:28.820Z,131.00
2018-09-06T23:44:57.313Z,151.93
2018-09-06T23:47:25.645Z,134.43
2018-09-06T23:49:53.969Z,193.67
2018-09-06T23:52:22.225Z,100.20
2018-09-06T23:54:50.625Z,144.00
2018-09-06T23:57:18.932Z,137.97
2018-09-06T23:59:47.208Z,167.83
